Golden Meadow, LA

6:17 PM CDT on August 21, 2014 (GMT -0500)
Grand Isle | Change Station
CLOSE
Current Station
Airport
Location: Grand Isle,
Elevation: 7 ft
Nearby Weather Stations

Elev 7 ft 29.25 °N, 89.97 °W | Updated 1 hour ago

Mostly Cloudy
Mostly Cloudy
90 °F
Feels Like 102 °F
N
6
Wind Variable Wind from North

Today
High -- | Low -- °F
--% Chance of Precip.
Yesterday
High -- | Low -- °F
Precip. -- in
6:32 AM 7:35 PM
Waning Crescent, 11% visible
Pressure 30.11 in
Visibility 7.0 miles
Clouds Scattered Clouds 2000 ft
Mostly Cloudy 4000 ft
Heat Index 102 °F
Dew Point 77 °F
Humidity 66%
Rainfall 0.00 in
Snow Depth Not available.
UV 3 out of 12
Pollen 7.20 out of 12
Air Quality Not available.
Flu Activity Not available.
SPECI KAXO 212150Z 01005KT 7SM SCT020 BKN040 32/25 A3011 RMK LAST

More Conditions Fewer Conditions

Pressure 30.11 in
Visibility 7.0 miles
Clouds Scattered Clouds 2000 ft
Mostly Cloudy 4000 ft
Heat Index 102 °F
Dew Point 77 °F
Humidity 66%
Rainfall 0.00 in
Snow Depth Not available.
UV 3 out of 12
Pollen 7.20 out of 12
Air Quality Not available.
Flu Activity Not available.
SPECI KAXO 212150Z 01005KT 7SM SCT020 BKN040 32/25 A3011 RMK LAST

More Conditions Fewer Conditions

10-Day Weather Forecast

Almanac

Astronomy

Aug. 21, 2014 Rise Set
Actual Time 6:32 AM CDT 7:35 PM CDT
Civil Twilight 6:08 AM CDT 7:59 PM CDT
Nautical Twilight 5:38 AM CDT 8:28 PM CDT
Astronomical Twilight 5:08 AM CDT 8:58 PM CDT
Moon 3:10 AM CDT 4:57 PM CDT
Length of Visible Light 13h 51m
Length of Day
13h 02m
Tomorrow will be 1m 37s shorter.
Waning Crescent, 11% of the Moon is Illuminated
Today
Waning Crescent
Aug 25
New
Sep 2
First Quarter
Sep 8
Full
Sep 15
Last Quarter

Today's Extremes

State Highs State Lows

Community

WunderPhotos

Upload Photos

1,746,051 photos uploaded!

Nearby

Snow Depth

Station Depth Elevation
No new snow has been reported.

Earthquake Activity

City Distance Mag. Time & Date
No recent earthquake activity has been reported nearby.
Minimum magnitude displayed is 2.5.

Coastal Water Temperatures

Place Temperature
Amerada Pass, LA 89.1 °F

Nearby Weather Stations